sensor_id;sensor_type;location;lat;lon;timestamp;pressure;altitude;pressure_sealevel;temperature;humidity
44926;BME280;30662;51.210;7.656;2022-12-18T00:00:31;147812.72;;;-4.10;87.34
44926;BME280;30662;51.210;7.656;2022-12-18T00:02:57;147752.63;;;-4.35;88.89
44926;BME280;30662;51.210;7.656;2022-12-18T00:05:23;147742.66;;;-4.39;89.18
44926;BME280;30662;51.210;7.656;2022-12-18T00:07:50;147777.69;;;-4.25;89.11
44926;BME280;30662;51.210;7.656;2022-12-18T00:10:15;147788.91;;;-4.20;88.79
44926;BME280;30662;51.210;7.656;2022-12-18T00:12:41;147766.41;;;-4.29;89.71
44926;BME280;30662;51.210;7.656;2022-12-18T00:15:10;147763.91;;;-4.30;89.97
44926;BME280;30662;51.210;7.656;2022-12-18T00:17:36;147768.88;;;-4.28;90.03
44926;BME280;30662;51.210;7.656;2022-12-18T00:20:02;147757.66;;;-4.33;89.82
44926;BME280;30662;51.210;7.656;2022-12-18T00:22:28;147775.19;;;-4.26;89.10
44926;BME280;30662;51.210;7.656;2022-12-18T00:24:54;147777.69;;;-4.25;89.02
44926;BME280;30662;51.210;7.656;2022-12-18T00:27:20;147762.66;;;-4.31;89.16
44926;BME280;30662;51.210;7.656;2022-12-18T00:29:48;147762.66;;;-4.31;89.38
44926;BME280;30662;51.210;7.656;2022-12-18T00:32:14;147782.66;;;-4.23;88.75
44926;BME280;30662;51.210;7.656;2022-12-18T00:34:39;147812.72;;;-4.10;88.23
44926;BME280;30662;51.210;7.656;2022-12-18T00:37:05;147844.00;;;-3.98;87.80
44926;BME280;30662;51.210;7.656;2022-12-18T00:39:31;147837.72;;;-4.00;87.66
44926;BME280;30662;51.210;7.656;2022-12-18T00:41:57;147815.19;;;-4.09;88.78
44926;BME280;30662;51.210;7.656;2022-12-18T00:44:42;147820.19;;;-4.07;88.62
44926;BME280;30662;51.210;7.656;2022-12-18T00:47:08;147800.19;;;-4.16;89.41
44926;BME280;30662;51.210;7.656;2022-12-18T00:49:34;147850.25;;;-3.95;88.74
44926;BME280;30662;51.210;7.656;2022-12-18T00:52:00;147840.22;;;-3.99;88.91
44926;BME280;30662;51.210;7.656;2022-12-18T00:54:26;147881.53;;;-3.82;87.79
44926;BME280;30662;51.210;7.656;2022-12-18T00:56:52;147853.97;;;-3.94;88.77
44926;BME280;30662;51.210;7.656;2022-12-18T00:59:18;147831.47;;;-4.03;89.87
44926;BME280;30662;51.210;7.656;2022-12-18T01:01:44;147833.97;;;-4.02;90.54
44926;BME280;30662;51.210;7.656;2022-12-18T01:04:11;147818.94;;;-4.08;90.91
44926;BME280;30662;51.210;7.656;2022-12-18T01:06:37;147816.44;;;-4.09;91.21
44926;BME280;30662;51.210;7.656;2022-12-18T01:09:04;147847.75;;;-3.96;90.55
44926;BME280;30662;51.210;7.656;2022-12-18T01:11:30;147856.47;;;-3.93;90.62
44926;BME280;30662;51.210;7.656;2022-12-18T01:13:56;147823.94;;;-4.06;91.47
44926;BME280;30662;51.210;7.656;2022-12-18T01:16:22;147832.72;;;-4.02;91.32
44926;BME280;30662;51.210;7.656;2022-12-18T01:18:51;147892.78;;;-3.78;89.79
44926;BME280;30662;51.210;7.656;2022-12-18T01:21:18;147870.25;;;-3.87;89.65
44926;BME280;30662;51.210;7.656;2022-12-18T01:23:44;147836.47;;;-4.01;90.99
44926;BME280;30662;51.210;7.656;2022-12-18T01:26:12;147812.72;;;-4.10;91.68
44926;BME280;30662;51.210;7.656;2022-12-18T01:28:39;147810.22;;;-4.11;91.96
44926;BME280;30662;51.210;7.656;2022-12-18T01:31:28;147817.69;;;-4.08;92.00
44926;BME280;30662;51.210;7.656;2022-12-18T01:33:55;147836.47;;;-4.01;91.34
44926;BME280;30662;51.210;7.656;2022-12-18T01:36:30;147820.19;;;-4.07;91.55
44926;BME280;30662;51.210;7.656;2022-12-18T01:38:56;147826.47;;;-4.05;91.97
44926;BME280;30662;51.210;7.656;2022-12-18T01:41:26;147816.44;;;-4.09;92.20
44926;BME280;30662;51.210;7.656;2022-12-18T01:43:55;147835.22;;;-4.01;91.52
44926;BME280;30662;51.210;7.656;2022-12-18T01:46:23;147816.44;;;-4.09;91.75
44926;BME280;30662;51.210;7.656;2022-12-18T01:48:59;147813.97;;;-4.10;91.86
44926;BME280;30662;51.210;7.656;2022-12-18T01:51:27;147845.25;;;-3.97;91.05
44926;BME280;30662;51.210;7.656;2022-12-18T01:53:56;147825.22;;;-4.05;91.64
44926;BME280;30662;51.210;7.656;2022-12-18T01:56:22;147818.94;;;-4.08;92.00
44926;BME280;30662;51.210;7.656;2022-12-18T01:59:01;147852.75;;;-3.94;91.37
44926;BME280;30662;51.210;7.656;2022-12-18T02:01:29;147845.25;;;-3.97;91.32
44926;BME280;30662;51.210;7.656;2022-12-18T02:04:17;147806.41;;;-4.13;92.26
44926;BME280;30662;51.210;7.656;2022-12-18T02:06:45;147828.97;;;-4.04;91.68
44926;BME280;30662;51.210;7.656;2022-12-18T02:09:15;147775.19;;;-4.26;92.93
44926;BME280;30662;51.210;7.656;2022-12-18T02:12:25;147837.72;;;-4.00;91.33
44926;BME280;30662;51.210;7.656;2022-12-18T02:15:05;147812.72;;;-4.10;91.62
44926;BME280;30662;51.210;7.656;2022-12-18T02:17:39;147800.19;;;-4.16;92.34
44926;BME280;30662;51.210;7.656;2022-12-18T02:20:18;147795.19;;;-4.18;92.37
44926;BME280;30662;51.210;7.656;2022-12-18T02:26:37;147810.22;;;-4.11;91.94
44926;BME280;30662;51.210;7.656;2022-12-18T02:28:51;147833.97;;;-4.02;91.87
44926;BME280;30662;51.210;7.656;2022-12-18T02:31:24;147818.94;;;-4.08;91.76
44926;BME280;30662;51.210;7.656;2022-12-18T02:33:52;147813.97;;;-4.10;92.15
44926;BME280;30662;51.210;7.656;2022-12-18T02:36:21;147864.03;;;-3.90;91.38
44926;BME280;30662;51.210;7.656;2022-12-18T02:38:47;147825.22;;;-4.05;91.79
44926;BME280;30662;51.210;7.656;2022-12-18T02:41:14;147856.47;;;-3.93;91.81
44926;BME280;30662;51.210;7.656;2022-12-18T02:44:06;147807.72;;;-4.12;92.57
44926;BME280;30662;51.210;7.656;2022-12-18T02:46:35;147822.69;;;-4.06;91.70
44926;BME280;30662;51.210;7.656;2022-12-18T02:54:17;147826.47;;;-4.05;91.50
44926;BME280;30662;51.210;7.656;2022-12-18T02:56:50;147823.94;;;-4.06;91.63
44926;BME280;30662;51.210;7.656;2022-12-18T02:59:40;147807.72;;;-4.12;92.02
44926;BME280;30662;51.210;7.656;2022-12-18T03:02:23;147828.97;;;-4.04;91.17
44926;BME280;30662;51.210;7.656;2022-12-18T03:05:03;147858.97;;;-3.92;90.69
44926;BME280;30662;51.210;7.656;2022-12-18T03:07:53;147831.47;;;-4.03;90.93
44926;BME280;30662;51.210;7.656;2022-12-18T03:10:26;147826.47;;;-4.05;91.40
44926;BME280;30662;51.210;7.656;2022-12-18T03:13:02;147822.69;;;-4.06;90.49
44926;BME280;30662;51.210;7.656;2022-12-18T03:15:50;147788.91;;;-4.20;92.09
44926;BME280;30662;51.210;7.656;2022-12-18T03:18:33;147806.41;;;-4.13;91.71
44926;BME280;30662;51.210;7.656;2022-12-18T03:21:03;147823.94;;;-4.06;91.22
44926;BME280;30662;51.210;7.656;2022-12-18T03:23:35;147833.97;;;-4.02;90.82
44926;BME280;30662;51.210;7.656;2022-12-18T03:26:06;147842.75;;;-3.98;91.00
44926;BME280;30662;51.210;7.656;2022-12-18T03:28:36;147805.16;;;-4.13;91.26
44926;BME280;30662;51.210;7.656;2022-12-18T03:31:04;147805.16;;;-4.13;91.33
44926;BME280;30662;51.210;7.656;2022-12-18T03:33:41;147825.22;;;-4.05;91.25
44926;BME280;30662;51.210;7.656;2022-12-18T03:36:09;147855.22;;;-3.93;89.71
44926;BME280;30662;51.210;7.656;2022-12-18T03:38:35;147830.22;;;-4.03;90.55
44926;BME280;30662;51.210;7.656;2022-12-18T03:49:08;147801.44;;;-4.15;91.61
44926;BME280;30662;51.210;7.656;2022-12-18T03:52:17;147798.94;;;-4.16;91.47
44926;BME280;30662;51.210;7.656;2022-12-18T03:54:45;147803.94;;;-4.14;91.17
44926;BME280;30662;51.210;7.656;2022-12-18T03:57:19;147816.44;;;-4.09;90.44
44926;BME280;30662;51.210;7.656;2022-12-18T03:59:49;147845.25;;;-3.97;89.17
44926;BME280;30662;51.210;7.656;2022-12-18T04:02:17;147800.19;;;-4.16;90.36
44926;BME280;30662;51.210;7.656;2022-12-18T04:04:44;147775.19;;;-4.26;90.95
44926;BME280;30662;51.210;7.656;2022-12-18T04:07:13;147800.19;;;-4.16;91.21
44926;BME280;30662;51.210;7.656;2022-12-18T04:09:40;147811.47;;;-4.11;90.40
44926;BME280;30662;51.210;7.656;2022-12-18T04:12:08;147831.47;;;-4.03;89.62
44926;BME280;30662;51.210;7.656;2022-12-18T04:14:34;147855.22;;;-3.93;88.02
44926;BME280;30662;51.210;7.656;2022-12-18T04:17:01;147832.72;;;-4.02;89.16
44926;BME280;30662;51.210;7.656;2022-12-18T04:19:28;147795.19;;;-4.18;90.45
44926;BME280;30662;51.210;7.656;2022-12-18T04:21:54;147780.16;;;-4.24;90.93
44926;BME280;30662;51.210;7.656;2022-12-18T04:24:20;147763.91;;;-4.30;91.23
44926;BME280;30662;51.210;7.656;2022-12-18T04:26:46;147790.19;;;-4.20;90.69
44926;BME280;30662;51.210;7.656;2022-12-18T04:29:12;147768.88;;;-4.28;91.21
44926;BME280;30662;51.210;7.656;2022-12-18T04:31:38;147801.44;;;-4.15;90.63
44926;BME280;30662;51.210;7.656;2022-12-18T04:34:03;147847.75;;;-3.96;88.46
44926;BME280;30662;51.210;7.656;2022-12-18T04:36:29;147821.44;;;-4.07;88.99
44926;BME280;30662;51.210;7.656;2022-12-18T04:38:55;147808.97;;;-4.12;89.18
44926;BME280;30662;51.210;7.656;2022-12-18T04:41:21;147812.72;;;-4.10;89.41
44926;BME280;30662;51.210;7.656;2022-12-18T04:43:47;147821.44;;;-4.07;88.80
44926;BME280;30662;51.210;7.656;2022-12-18T04:46:13;147805.16;;;-4.13;89.24
44926;BME280;30662;51.210;7.656;2022-12-18T04:48:39;147806.41;;;-4.13;89.15
44926;BME280;30662;51.210;7.656;2022-12-18T04:51:05;147778.91;;;-4.24;89.24
44926;BME280;30662;51.210;7.656;2022-12-18T04:53:31;147762.66;;;-4.31;90.23
44926;BME280;30662;51.210;7.656;2022-12-18T04:56:08;147776.44;;;-4.25;89.85
44926;BME280;30662;51.210;7.656;2022-12-18T04:58:36;147748.88;;;-4.36;89.81
44926;BME280;30662;51.210;7.656;2022-12-18T05:01:01;147735.13;;;-4.42;89.90
44926;BME280;30662;51.210;7.656;2022-12-18T05:03:27;147715.09;;;-4.50;90.84
44926;BME280;30662;51.210;7.656;2022-12-18T05:05:53;147725.13;;;-4.46;91.06
44926;BME280;30662;51.210;7.656;2022-12-18T05:08:19;147756.41;;;-4.33;90.74
44926;BME280;30662;51.210;7.656;2022-12-18T05:10:45;147750.13;;;-4.36;90.92
44926;BME280;30662;51.210;7.656;2022-12-18T05:13:11;147746.38;;;-4.37;91.15
44926;BME280;30662;51.210;7.656;2022-12-18T05:15:37;147768.88;;;-4.28;90.57
44926;BME280;30662;51.210;7.656;2022-12-18T05:18:03;147756.41;;;-4.33;90.51
44926;BME280;30662;51.210;7.656;2022-12-18T05:20:30;147788.91;;;-4.20;88.99
44926;BME280;30662;51.210;7.656;2022-12-18T05:22:57;147800.19;;;-4.16;88.50
44926;BME280;30662;51.210;7.656;2022-12-18T05:25:23;147818.94;;;-4.08;87.74
44926;BME280;30662;51.210;7.656;2022-12-18T05:27:49;147810.22;;;-4.11;87.16
44926;BME280;30662;51.210;7.656;2022-12-18T05:30:15;147820.19;;;-4.07;86.77
44926;BME280;30662;51.210;7.656;2022-12-18T05:32:42;147874.00;;;-3.85;85.02
44926;BME280;30662;51.210;7.656;2022-12-18T05:35:09;147902.81;;;-3.74;83.86
44926;BME280;30662;51.210;7.656;2022-12-18T05:37:35;147879.03;;;-3.83;84.78
44926;BME280;30662;51.210;7.656;2022-12-18T05:40:08;147879.03;;;-3.83;84.97
44926;BME280;30662;51.210;7.656;2022-12-18T05:42:35;147876.50;;;-3.84;85.33
44926;BME280;30662;51.210;7.656;2022-12-18T05:45:02;147891.53;;;-3.78;84.62
44926;BME280;30662;51.210;7.656;2022-12-18T05:47:30;147870.25;;;-3.87;85.91
44926;BME280;30662;51.210;7.656;2022-12-18T05:49:56;147872.75;;;-3.86;86.45
44926;BME280;30662;51.210;7.656;2022-12-18T05:52:22;147858.97;;;-3.92;86.97
44926;BME280;30662;51.210;7.656;2022-12-18T05:54:47;147890.28;;;-3.79;86.26
44926;BME280;30662;51.210;7.656;2022-12-18T05:57:13;147915.34;;;-3.69;85.56
44926;BME280;30662;51.210;7.656;2022-12-18T05:59:39;147912.78;;;-3.70;85.15
44926;BME280;30662;51.210;7.656;2022-12-18T06:02:05;147912.78;;;-3.70;85.23
44926;BME280;30662;51.210;7.656;2022-12-18T06:04:31;147952.88;;;-3.53;84.90
44926;BME280;30662;51.210;7.656;2022-12-18T06:06:57;147902.81;;;-3.74;85.17
44926;BME280;30662;51.210;7.656;2022-12-18T06:09:23;147914.09;;;-3.69;85.35
44926;BME280;30662;51.210;7.656;2022-12-18T06:11:51;147931.59;;;-3.62;84.34
44926;BME280;30662;51.210;7.656;2022-12-18T06:14:17;147962.88;;;-3.49;83.91
44926;BME280;30662;51.210;7.656;2022-12-18T06:16:43;147906.56;;;-3.72;83.97
44926;BME280;30662;51.210;7.656;2022-12-18T06:19:14;147940.34;;;-3.58;83.38
44926;BME280;30662;51.210;7.656;2022-12-18T06:21:40;147962.88;;;-3.49;82.62
44926;BME280;30662;51.210;7.656;2022-12-18T06:24:07;147965.38;;;-3.48;82.23
44926;BME280;30662;51.210;7.656;2022-12-18T06:26:33;147959.13;;;-3.51;82.27
44926;BME280;30662;51.210;7.656;2022-12-18T06:28:59;147929.06;;;-3.63;83.97
44926;BME280;30662;51.210;7.656;2022-12-18T06:31:25;147931.59;;;-3.62;83.86
44926;BME280;30662;51.210;7.656;2022-12-18T06:33:52;147949.09;;;-3.55;83.91
44926;BME280;30662;51.210;7.656;2022-12-18T06:36:18;147964.13;;;-3.49;82.60
44926;BME280;30662;51.210;7.656;2022-12-18T06:38:45;147945.34;;;-3.56;82.61
44926;BME280;30662;51.210;7.656;2022-12-18T06:41:13;147951.63;;;-3.54;83.13
44926;BME280;30662;51.210;7.656;2022-12-18T06:43:39;147940.34;;;-3.58;83.73
44926;BME280;30662;51.210;7.656;2022-12-18T06:46:06;147916.59;;;-3.68;83.43
44926;BME280;30662;51.210;7.656;2022-12-18T06:48:32;147925.31;;;-3.65;82.84
44926;BME280;30662;51.210;7.656;2022-12-18T06:50:59;147952.88;;;-3.53;81.82
44926;BME280;30662;51.210;7.656;2022-12-18T06:53:26;147932.84;;;-3.62;82.57
44926;BME280;30662;51.210;7.656;2022-12-18T06:55:59;147912.78;;;-3.70;83.66
44926;BME280;30662;51.210;7.656;2022-12-18T06:58:31;147931.59;;;-3.62;82.25
44926;BME280;30662;51.210;7.656;2022-12-18T07:01:06;147939.09;;;-3.59;81.93
44926;BME280;30662;51.210;7.656;2022-12-18T07:03:33;147930.31;;;-3.63;82.35
44926;BME280;30662;51.210;7.656;2022-12-18T07:05:59;147920.31;;;-3.67;81.31
44926;BME280;30662;51.210;7.656;2022-12-18T07:08:25;147912.78;;;-3.70;82.00
44926;BME280;30662;51.210;7.656;2022-12-18T07:10:51;147932.84;;;-3.62;81.97
44926;BME280;30662;51.210;7.656;2022-12-18T07:13:22;147906.56;;;-3.72;80.44
44926;BME280;30662;51.210;7.656;2022-12-18T07:15:48;147902.81;;;-3.74;79.76
44926;BME280;30662;51.210;7.656;2022-12-18T07:18:13;147904.06;;;-3.73;80.37
44926;BME280;30662;51.210;7.656;2022-12-18T07:20:40;147879.03;;;-3.83;78.92
44926;BME280;30662;51.210;7.656;2022-12-18T07:23:06;147896.56;;;-3.76;79.38
44926;BME280;30662;51.210;7.656;2022-12-18T07:25:36;147940.34;;;-3.58;78.99
44926;BME280;30662;51.210;7.656;2022-12-18T07:28:03;147905.31;;;-3.73;79.33
44926;BME280;30662;51.210;7.656;2022-12-18T07:30:29;147905.31;;;-3.73;78.83
44926;BME280;30662;51.210;7.656;2022-12-18T07:32:55;147914.09;;;-3.69;78.86
44926;BME280;30662;51.210;7.656;2022-12-18T07:35:21;147916.59;;;-3.68;78.51
44926;BME280;30662;51.210;7.656;2022-12-18T07:37:50;147941.59;;;-3.58;77.35
44926;BME280;30662;51.210;7.656;2022-12-18T07:40:16;147932.84;;;-3.62;77.09
44926;BME280;30662;51.210;7.656;2022-12-18T07:42:42;147985.44;;;-3.40;76.45
44926;BME280;30662;51.210;7.656;2022-12-18T07:45:08;147980.41;;;-3.42;75.49
44926;BME280;30662;51.210;7.656;2022-12-18T07:47:35;147991.69;;;-3.38;75.15
44926;BME280;30662;51.210;7.656;2022-12-18T07:50:03;147992.94;;;-3.37;75.00
44926;BME280;30662;51.210;7.656;2022-12-18T07:52:29;148024.25;;;-3.24;74.23
44926;BME280;30662;51.210;7.656;2022-12-18T07:54:56;147987.94;;;-3.39;75.45
44926;BME280;30662;51.210;7.656;2022-12-18T07:57:22;148021.75;;;-3.25;71.25
44926;BME280;30662;51.210;7.656;2022-12-18T08:00:08;148032.97;;;-3.21;72.93
44926;BME280;30662;51.210;7.656;2022-12-18T08:02:34;148029.25;;;-3.22;72.97
44926;BME280;30662;51.210;7.656;2022-12-18T08:05:01;148030.50;;;-3.22;72.38
44926;BME280;30662;51.210;7.656;2022-12-18T08:07:26;148041.78;;;-3.17;71.87
44926;BME280;30662;51.210;7.656;2022-12-18T08:09:52;148043.03;;;-3.17;71.97
44926;BME280;30662;51.210;7.656;2022-12-18T08:12:18;148083.09;;;-3.00;71.00
44926;BME280;30662;51.210;7.656;2022-12-18T08:14:44;148085.59;;;-2.99;71.40
44926;BME280;30662;51.210;7.656;2022-12-18T08:17:10;148114.41;;;-2.88;70.32
44926;BME280;30662;51.210;7.656;2022-12-18T08:19:36;148108.13;;;-2.90;70.20
44926;BME280;30662;51.210;7.656;2022-12-18T08:22:02;148115.66;;;-2.87;70.36
44926;BME280;30662;51.210;7.656;2022-12-18T08:24:28;148120.66;;;-2.85;69.92
44926;BME280;30662;51.210;7.656;2022-12-18T08:26:54;148101.88;;;-2.93;70.46
44926;BME280;30662;51.210;7.656;2022-12-18T08:29:40;148109.38;;;-2.90;70.36
44926;BME280;30662;51.210;7.656;2022-12-18T08:32:06;148116.91;;;-2.87;69.73
44926;BME280;30662;51.210;7.656;2022-12-18T08:34:31;148138.19;;;-2.78;68.84
44926;BME280;30662;51.210;7.656;2022-12-18T08:36:57;148177.03;;;-2.62;67.52
44926;BME280;30662;51.210;7.656;2022-12-18T08:39:23;148197.06;;;-2.54;66.96
44926;BME280;30662;51.210;7.656;2022-12-18T08:41:49;148197.06;;;-2.54;66.66
44926;BME280;30662;51.210;7.656;2022-12-18T08:44:35;148228.41;;;-2.41;65.80
44926;BME280;30662;51.210;7.656;2022-12-18T08:47:05;148208.34;;;-2.50;67.06
44926;BME280;30662;51.210;7.656;2022-12-18T08:49:32;148218.41;;;-2.45;66.17
44926;BME280;30662;51.210;7.656;2022-12-18T08:51:58;148250.94;;;-2.32;64.90
44926;BME280;30662;51.210;7.656;2022-12-18T08:54:25;148255.97;;;-2.30;64.62
44926;BME280;30662;51.210;7.656;2022-12-18T08:56:51;148287.28;;;-2.17;64.75
44926;BME280;30662;51.210;7.656;2022-12-18T08:59:18;148260.97;;;-2.28;63.13
44926;BME280;30662;51.210;7.656;2022-12-18T09:01:46;148269.72;;;-2.25;63.58
44926;BME280;30662;51.210;7.656;2022-12-18T09:04:13;148298.56;;;-2.13;60.90
44926;BME280;30662;51.210;7.656;2022-12-18T09:06:40;148318.63;;;-2.05;62.59
44926;BME280;30662;51.210;7.656;2022-12-18T09:09:06;148329.91;;;-2.00;61.65
44926;BME280;30662;51.210;7.656;2022-12-18T09:11:33;148337.41;;;-1.97;61.72
44926;BME280;30662;51.210;7.656;2022-12-18T09:14:00;148382.56;;;-1.79;60.57
44926;BME280;30662;51.210;7.656;2022-12-18T09:16:27;148406.38;;;-1.69;60.92
44926;BME280;30662;51.210;7.656;2022-12-18T09:18:59;148476.59;;;-1.41;59.73
44926;BME280;30662;51.210;7.656;2022-12-18T09:21:30;148466.59;;;-1.45;58.86
44926;BME280;30662;51.210;7.656;2022-12-18T09:24:01;148514.22;;;-1.25;58.51
44926;BME280;30662;51.210;7.656;2022-12-18T09:26:27;148499.16;;;-1.31;58.21
44926;BME280;30662;51.210;7.656;2022-12-18T09:28:53;148517.97;;;-1.24;58.01
44926;BME280;30662;51.210;7.656;2022-12-18T09:31:21;148544.34;;;-1.13;58.62
44926;BME280;30662;51.210;7.656;2022-12-18T09:33:48;148599.53;;;-0.91;57.36
44926;BME280;30662;51.210;7.656;2022-12-18T09:36:15;148593.28;;;-0.93;57.62
44926;BME280;30662;51.210;7.656;2022-12-18T09:38:42;148609.59;;;-0.87;57.84
44926;BME280;30662;51.210;7.656;2022-12-18T09:44:14;148658.50;;;-0.67;56.13
44926;BME280;30662;51.210;7.656;2022-12-18T09:49:33;148664.81;;;-0.64;56.96
44926;BME280;30662;51.210;7.656;2022-12-18T09:52:04;148694.88;;;-0.52;55.84
44926;BME280;30662;51.210;7.656;2022-12-18T09:54:43;148653.50;;;-0.69;55.54
44926;BME280;30662;51.210;7.656;2022-12-18T09:57:22;148735.09;;;-0.36;53.35
44926;BME280;30662;51.210;7.656;2022-12-18T10:00:36;148807.88;;;-0.06;51.93
44926;BME280;30662;51.210;7.656;2022-12-18T10:02:37;148871.91;;;0.20;53.10
44926;BME280;30662;51.210;7.656;2022-12-18T10:05:05;148934.72;;;0.45;51.21
44926;BME280;30662;51.210;7.656;2022-12-18T10:10:03;149105.56;;;1.15;48.39
44926;BME280;30662;51.210;7.656;2022-12-18T10:12:46;149139.50;;;1.28;47.94
44926;BME280;30662;51.210;7.656;2022-12-18T10:15:38;149209.91;;;1.57;47.08
44926;BME280;30662;51.210;7.656;2022-12-18T10:18:35;149281.56;;;1.86;46.50
44926;BME280;30662;51.210;7.656;2022-12-18T10:21:10;149392.25;;;2.31;45.17
44926;BME280;30662;51.210;7.656;2022-12-18T10:26:14;149471.53;;;2.63;44.52
44926;BME280;30662;51.210;7.656;2022-12-18T10:28:45;149534.41;;;2.88;44.06
44926;BME280;30662;51.210;7.656;2022-12-18T10:31:17;149487.88;;;2.69;43.26
44926;BME280;30662;51.210;7.656;2022-12-18T10:33:44;149535.66;;;2.89;42.55
44926;BME280;30662;51.210;7.656;2022-12-18T10:36:10;149647.75;;;3.34;41.70
44926;BME280;30662;51.210;7.656;2022-12-18T10:38:37;149690.53;;;3.51;42.52
44926;BME280;30662;51.210;7.656;2022-12-18T10:41:27;149752.22;;;3.76;40.65
44926;BME280;30662;51.210;7.656;2022-12-18T10:44:12;149769.84;;;3.83;40.65
44926;BME280;30662;51.210;7.656;2022-12-18T10:46:41;149818.97;;;4.03;40.31
44926;BME280;30662;51.210;7.656;2022-12-18T10:49:18;149890.78;;;4.32;38.24
44926;BME280;30662;51.210;7.656;2022-12-18T10:51:45;149883.25;;;4.29;37.80
44926;BME280;30662;51.210;7.656;2022-12-18T10:54:23;149889.53;;;4.32;38.27
44926;BME280;30662;51.210;7.656;2022-12-18T10:56:50;149929.84;;;4.48;37.68
44926;BME280;30662;51.210;7.656;2022-12-18T10:59:17;149909.69;;;4.40;37.88
44926;BME280;30662;51.210;7.656;2022-12-18T11:04:32;149982.78;;;4.69;36.58
44926;BME280;30662;51.210;7.656;2022-12-18T11:07:08;149869.38;;;4.24;37.35
44926;BME280;30662;51.210;7.656;2022-12-18T11:09:37;149894.56;;;4.34;37.56
44926;BME280;30662;51.210;7.656;2022-12-18T11:12:14;149757.28;;;3.78;38.24
44926;BME280;30662;51.210;7.656;2022-12-18T11:14:48;149758.53;;;3.79;39.25
44926;BME280;30662;51.210;7.656;2022-12-18T11:17:20;149696.81;;;3.54;38.99
44926;BME280;30662;51.210;7.656;2022-12-18T11:19:53;149733.31;;;3.69;38.49
44926;BME280;30662;51.210;7.656;2022-12-18T11:22:23;149836.63;;;4.10;38.06
44926;BME280;30662;51.210;7.656;2022-12-18T11:24:57;149812.69;;;4.01;36.85
44926;BME280;30662;51.210;7.656;2022-12-18T11:30:45;149803.84;;;3.97;39.04
44926;BME280;30662;51.210;7.656;2022-12-18T11:33:16;149769.84;;;3.83;38.47
44926;BME280;30662;51.210;7.656;2022-12-18T11:38:21;149628.84;;;3.26;40.73
44926;BME280;30662;51.210;7.656;2022-12-18T11:41:14;149597.38;;;3.14;40.76
44926;BME280;30662;51.210;7.656;2022-12-18T11:43:48;149471.53;;;2.63;41.13
44926;BME280;30662;51.210;7.656;2022-12-18T11:46:34;149494.16;;;2.72;41.32
44926;BME280;30662;51.210;7.656;2022-12-18T11:49:15;149540.75;;;2.91;40.95
44926;BME280;30662;51.210;7.656;2022-12-18T11:51:53;149428.72;;;2.45;40.56
44926;BME280;30662;51.210;7.656;2022-12-18T11:54:21;149446.34;;;2.53;41.37
44926;BME280;30662;51.210;7.656;2022-12-18T11:56:58;149398.56;;;2.33;41.01
44926;BME280;30662;51.210;7.656;2022-12-18T11:59:37;149340.66;;;2.10;41.44
44926;BME280;30662;51.210;7.656;2022-12-18T12:16:50;149212.41;;;1.58;41.76
44926;BME280;30662;51.210;7.656;2022-12-18T12:19:45;149192.28;;;1.50;41.60
44926;BME280;30662;51.210;7.656;2022-12-18T12:24:56;149158.34;;;1.36;42.67
44926;BME280;30662;51.210;7.656;2022-12-18T12:30:06;149133.22;;;1.26;44.70
44926;BME280;30662;51.210;7.656;2022-12-18T12:35:35;149095.53;;;1.10;44.12
44926;BME280;30662;51.210;7.656;2022-12-18T12:38:21;149021.41;;;0.80;44.43
44926;BME280;30662;51.210;7.656;2022-12-18T12:40:52;149011.34;;;0.76;44.89
44926;BME280;30662;51.210;7.656;2022-12-18T12:43:52;148998.75;;;0.71;45.06
44926;BME280;30662;51.210;7.656;2022-12-18T12:46:19;148987.47;;;0.67;46.77
44926;BME280;30662;51.210;7.656;2022-12-18T12:48:51;148998.75;;;0.71;46.44
44926;BME280;30662;51.210;7.656;2022-12-18T12:51:25;148966.13;;;0.58;47.68
44926;BME280;30662;51.210;7.656;2022-12-18T12:53:53;148939.72;;;0.47;47.44
44926;BME280;30662;51.210;7.656;2022-12-18T12:56:21;148907.06;;;0.34;47.72
44926;BME280;30662;51.210;7.656;2022-12-18T12:59:56;148904.56;;;0.33;47.72
44926;BME280;30662;51.210;7.656;2022-12-18T13:08:05;148889.47;;;0.27;47.80
44926;BME280;30662;51.210;7.656;2022-12-18T13:10:40;148840.50;;;0.07;48.62
44926;BME280;30662;51.210;7.656;2022-12-18T13:13:12;148821.66;;;-0.01;49.26
44926;BME280;30662;51.210;7.656;2022-12-18T13:15:50;148807.88;;;-0.06;49.91
44926;BME280;30662;51.210;7.656;2022-12-18T13:18:28;148794.06;;;-0.12;50.19
44926;BME280;30662;51.210;7.656;2022-12-18T13:23:36;148752.66;;;-0.29;51.37
44926;BME280;30662;51.210;7.656;2022-12-18T13:34:20;148714.97;;;-0.44;52.95
44926;BME280;30662;51.210;7.656;2022-12-18T13:37:35;148746.34;;;-0.31;53.00
44926;BME280;30662;51.210;7.656;2022-12-18T13:39:42;148733.84;;;-0.36;53.70
44926;BME280;30662;51.210;7.656;2022-12-18T13:44:55;148703.69;;;-0.48;54.54
44926;BME280;30662;51.210;7.656;2022-12-18T13:49:50;148697.38;;;-0.51;55.17
44926;BME280;30662;51.210;7.656;2022-12-18T13:52:24;148667.31;;;-0.63;56.39
44926;BME280;30662;51.210;7.656;2022-12-18T13:54:53;148661.00;;;-0.66;55.21
44926;BME280;30662;51.210;7.656;2022-12-18T13:57:32;148647.22;;;-0.71;55.27
44926;BME280;30662;51.210;7.656;2022-12-18T14:02:44;148668.56;;;-0.63;55.16
44926;BME280;30662;51.210;7.656;2022-12-18T14:05:33;148656.00;;;-0.68;55.62
44926;BME280;30662;51.210;7.656;2022-12-18T14:08:05;148654.72;;;-0.68;55.28
44926;BME280;30662;51.210;7.656;2022-12-18T14:10:32;148648.47;;;-0.71;55.40
44926;BME280;30662;51.210;7.656;2022-12-18T14:13:35;148635.91;;;-0.76;55.75
44926;BME280;30662;51.210;7.656;2022-12-18T14:16:04;148637.16;;;-0.75;56.46
44926;BME280;30662;51.210;7.656;2022-12-18T14:18:54;148627.16;;;-0.79;56.48
44926;BME280;30662;51.210;7.656;2022-12-18T14:21:29;148603.28;;;-0.89;57.23
44926;BME280;30662;51.210;7.656;2022-12-18T14:24:20;148570.66;;;-1.02;57.72
44926;BME280;30662;51.210;7.656;2022-12-18T14:26:48;148574.47;;;-1.01;58.41
44926;BME280;30662;51.210;7.656;2022-12-18T14:29:27;148559.41;;;-1.07;59.76
44926;BME280;30662;51.210;7.656;2022-12-18T14:32:14;148579.47;;;-0.99;59.54
44926;BME280;30662;51.210;7.656;2022-12-18T14:34:51;148559.41;;;-1.07;60.20